createdAt,value
2022-10-18T00:01:23.972Z,8.10
2022-10-18T00:16:25.447Z,7.78
2022-10-18T00:31:28.333Z,7.28
2022-10-18T00:46:34.060Z,8.02
2022-10-18T01:01:35.538Z,6.99
2022-10-18T01:16:44.212Z,6.96
2022-10-18T01:31:48.047Z,6.95
2022-10-18T01:46:51.033Z,6.77
2022-10-18T02:01:52.960Z,6.96
2022-10-18T02:16:57.165Z,6.65
2022-10-18T02:32:08.409Z,6.44
2022-10-18T02:47:10.722Z,6.05
2022-10-18T03:02:12.188Z,6.83
2022-10-18T03:17:13.668Z,6.28
2022-10-18T03:32:15.106Z,6.38
2022-10-18T03:47:16.660Z,7.15
2022-10-18T04:02:18.273Z,6.72
2022-10-18T04:17:19.724Z,6.45
2022-10-18T04:32:21.201Z,5.82
2022-10-18T04:47:22.688Z,6.40
2022-10-18T05:02:24.130Z,8.39
2022-10-18T05:17:25.649Z,9.80
2022-10-18T05:32:27.274Z,11.50
2022-10-18T05:47:28.848Z,11.50
2022-10-18T06:02:30.418Z,13.38
2022-10-18T06:17:32.664Z,14.15
2022-10-18T06:32:34.243Z,12.05
2022-10-18T06:47:35.731Z,15.98
2022-10-18T07:02:37.829Z,13.81
2022-10-18T07:17:39.319Z,16.58
2022-10-18T07:32:40.818Z,14.63
2022-10-18T07:47:42.389Z,14.23
2022-10-18T08:02:43.937Z,15.37
2022-10-18T08:17:45.437Z,16.84
2022-10-18T08:32:46.897Z,15.82
2022-10-18T08:47:49.916Z,16.48
2022-10-18T09:02:54.545Z,17.38
2022-10-18T09:17:55.996Z,19.95
2022-10-18T09:33:15.859Z,17.61
2022-10-18T09:48:21.672Z,19.05
2022-10-18T10:03:23.277Z,19.35
2022-10-18T10:18:30.228Z,18.98
2022-10-18T10:33:33.806Z,20.74
2022-10-18T10:48:46.637Z,22.54
2022-10-18T11:03:49.488Z,21.62
2022-10-18T11:18:52.777Z,23.36
2022-10-18T11:34:08.611Z,23.44
2022-10-18T11:49:29.708Z,23.71
2022-10-18T12:04:34.955Z,21.03
2022-10-18T12:19:36.924Z,23.99
2022-10-18T12:34:44.632Z,23.59
2022-10-18T12:49:55.294Z,24.17
2022-10-18T13:04:56.969Z,22.82
2022-10-18T13:20:26.527Z,22.44
2022-10-18T13:35:46.959Z,21.04
2022-10-18T13:50:49.309Z,19.96
2022-10-18T14:05:59.828Z,19.38
2022-10-18T14:21:13.755Z,18.52
2022-10-18T14:36:22.498Z,17.62
2022-10-18T14:51:25.102Z,16.59
2022-10-18T15:06:27.354Z,16.53
2022-10-18T15:21:29.326Z,17.06
2022-10-18T15:36:32.435Z,17.00
2022-10-18T15:52:03.388Z,16.59
2022-10-18T16:07:04.873Z,15.93
2022-10-18T16:22:07.148Z,14.17
2022-10-18T16:37:09.274Z,13.23
2022-10-18T16:52:10.782Z,13.28
2022-10-18T17:22:26.780Z,13.56
2022-10-18T17:37:28.479Z,12.69
2022-10-18T17:52:30.400Z,12.88
2022-10-18T18:07:32.282Z,11.83
2022-10-18T18:22:35.310Z,10.87
2022-10-18T18:37:38.367Z,10.71
2022-10-18T18:52:39.895Z,10.80
2022-10-18T19:07:41.374Z,10.83
2022-10-18T19:22:43.048Z,9.74
2022-10-18T19:37:44.518Z,10.29
2022-10-18T19:52:46.079Z,9.72
2022-10-18T20:07:47.665Z,9.26
2022-10-18T20:22:49.790Z,9.43
2022-10-18T20:37:51.324Z,9.38
2022-10-18T20:52:53.378Z,9.21
2022-10-18T21:07:54.899Z,9.62
2022-10-18T21:22:57.531Z,9.30
2022-10-18T21:37:59.040Z,8.92
2022-10-18T21:53:00.531Z,8.56
2022-10-18T22:16:08.940Z,8.12
2022-10-18T22:31:14.522Z,8.88
2022-10-18T22:46:16.111Z,8.09
2022-10-18T23:01:18.881Z,8.18
2022-10-18T23:16:21.032Z,8.07
2022-10-18T23:31:24.068Z,7.93
2022-10-18T23:46:25.569Z,7.81
